Time;durP1;ratioP1;P1;durP2;ratioP2;P2;SDS_P1;SDS_P2;PMS_P1;PMS_P2;Temp;Humidity;BMP_temperature;BMP_pressure;BME280_temperature;BME280_humidity;BME280_pressure;Samples;Min_cycle;Max_cycle;Signal;HPM_P1;HPM_P2
2021/07/28 00:00:17;;;;;;;10.67;9.53;;;17.70;99.90;;;;;;5115457;28;20442;-77
2021/07/28 00:02:44;;;;;;;11.13;10.13;;;17.70;99.90;;;;;;5115221;28;20486;-78
2021/07/28 00:05:11;;;;;;;10.33;9.20;;;17.80;99.90;;;;;;5115373;28;20525;-78
2021/07/28 00:07:38;;;;;;;12.00;9.57;;;17.80;99.90;;;;;;5115179;28;20469;-77
2021/07/28 00:10:07;;;;;;;10.60;9.70;;;17.90;99.90;;;;;;5115341;28;20441;-77
2021/07/28 00:12:34;;;;;;;9.83;8.97;;;18.00;99.90;;;;;;5114925;28;20944;-78
2021/07/28 00:15:01;;;;;;;9.00;8.10;;;18.00;99.90;;;;;;5114957;28;20481;-78
2021/07/28 00:17:28;;;;;;;9.07;8.37;;;18.00;99.90;;;;;;5114967;28;20469;-78
2021/07/28 00:19:58;;;;;;;8.53;7.90;;;18.10;99.90;;;;;;5115278;28;20445;-79
2021/07/28 00:25:12;;;;;;;10.03;9.13;;;18.20;99.90;;;;;;5115031;28;20416;-78
2021/07/28 00:27:39;;;;;;;10.13;8.50;;;18.30;99.90;;;;;;5114830;28;20473;-78
2021/07/28 00:30:09;;;;;;;9.70;8.90;;;18.30;99.90;;;;;;5114932;28;20448;-78
2021/07/28 00:32:35;;;;;;;10.17;9.27;;;18.30;99.90;;;;;;5114769;28;20448;-78
2021/07/28 00:35:03;;;;;;;10.93;9.93;;;18.30;99.90;;;;;;5114851;28;20572;-78
2021/07/28 00:37:29;;;;;;;10.57;9.70;;;18.30;99.90;;;;;;5114618;28;20469;-79
2021/07/28 00:39:56;;;;;;;11.10;10.00;;;18.20;99.90;;;;;;5114646;28;20813;-77
2021/07/28 00:42:24;;;;;;;11.47;10.47;;;18.20;99.90;;;;;;5114562;27;20453;-78
2021/07/28 00:44:51;;;;;;;12.90;9.20;;;18.20;99.90;;;;;;5114684;28;20441;-78
2021/07/28 00:47:21;;;;;;;12.63;10.63;;;18.20;99.90;;;;;;5114440;28;20461;-78
2021/07/28 00:49:49;;;;;;;11.27;10.27;;;18.20;99.90;;;;;;5113341;28;20448;-78
2021/07/28 00:52:16;;;;;;;11.47;10.43;;;18.20;99.90;;;;;;5114336;28;20858;-77
2021/07/28 00:54:43;;;;;;;11.60;10.60;;;18.20;99.90;;;;;;5114102;28;20481;-78
2021/07/28 00:57:09;;;;;;;10.87;9.93;;;18.30;99.90;;;;;;5114369;28;20468;-78
2021/07/28 00:59:38;;;;;;;11.53;10.67;;;18.30;99.90;;;;;;5114373;28;20865;-78
2021/07/28 01:02:05;;;;;;;12.80;11.70;;;18.30;99.90;;;;;;5114354;28;20522;-78
2021/07/28 01:04:32;;;;;;;12.47;11.57;;;18.30;99.90;;;;;;5114155;28;20445;-77
2021/07/28 01:07:00;;;;;;;12.50;11.20;;;18.30;99.90;;;;;;5113874;28;20484;-78
2021/07/28 01:09:28;;;;;;;11.23;10.30;;;18.20;99.90;;;;;;5114531;28;20481;-78
2021/07/28 01:11:57;;;;;;;12.30;11.17;;;18.20;99.90;;;;;;5113952;28;20501;-79
2021/07/28 01:14:23;;;;;;;12.20;11.27;;;18.20;99.90;;;;;;5114058;28;20481;-78
2021/07/28 01:16:53;;;;;;;13.77;12.53;;;18.20;99.90;;;;;;5114228;28;20465;-77
2021/07/28 01:19:23;;;;;;;13.10;11.57;;;18.20;99.90;;;;;;5114035;28;20452;-77
2021/07/28 01:21:52;;;;;;;12.30;11.07;;;18.10;99.90;;;;;;5113571;28;20528;-77
2021/07/28 01:24:21;;;;;;;13.77;10.70;;;18.10;99.90;;;;;;5113884;28;20445;-77
2021/07/28 01:26:48;;;;;;;11.57;10.63;;;18.10;99.90;;;;;;5113706;28;20524;-78
2021/07/28 01:29:15;;;;;;;12.63;11.47;;;18.10;99.90;;;;;;5113861;28;20441;-78
2021/07/28 01:31:44;;;;;;;13.53;12.40;;;18.10;99.90;;;;;;5113538;28;20936;-77
2021/07/28 01:34:13;;;;;;;11.80;10.70;;;18.20;99.90;;;;;;5113570;28;20493;-78
2021/07/28 01:36:41;;;;;;;11.90;10.97;;;18.20;99.90;;;;;;5113169;28;20520;-77
2021/07/28 01:39:08;;;;;;;13.50;12.20;;;18.20;99.90;;;;;;5113455;28;20791;-78
2021/07/28 01:41:36;;;;;;;12.60;11.60;;;18.20;99.90;;;;;;5113413;28;20978;-77
2021/07/28 01:44:03;;;;;;;13.40;12.40;;;18.10;99.90;;;;;;5113859;28;20445;-78
2021/07/28 01:46:30;;;;;;;15.10;11.17;;;18.00;99.90;;;;;;5113189;28;20441;-78
2021/07/28 01:48:57;;;;;;;13.13;12.13;;;18.00;99.90;;;;;;5113407;28;20944;-78
2021/07/28 01:51:23;;;;;;;14.17;12.63;;;17.90;99.90;;;;;;5113269;28;20472;-77
2021/07/28 01:53:50;;;;;;;11.40;10.60;;;17.80;99.90;;;;;;5113394;28;20453;-78
2021/07/28 01:56:18;;;;;;;14.17;12.30;;;17.80;99.90;;;;;;5113121;28;20488;-78
2021/07/28 01:58:53;;;;;;;12.23;11.23;;;17.80;99.90;;;;;;5113297;28;20479;-78
2021/07/28 02:01:21;;;;;;;13.30;12.07;;;17.90;99.90;;;;;;5112388;28;20543;-77
2021/07/28 02:03:47;;;;;;;12.27;11.17;;;17.80;99.90;;;;;;5113161;28;20469;-78
2021/07/28 02:06:14;;;;;;;12.87;11.70;;;17.80;99.90;;;;;;5113044;28;20446;-78
2021/07/28 02:08:41;;;;;;;12.40;11.13;;;17.80;99.90;;;;;;5112584;28;20477;-78
2021/07/28 02:11:13;;;;;;;15.80;11.50;;;17.80;99.90;;;;;;5112730;28;20452;-78
2021/07/28 02:13:40;;;;;;;12.17;11.17;;;17.80;99.90;;;;;;5112837;28;20784;-78
2021/07/28 02:16:08;;;;;;;12.90;11.60;;;17.80;99.90;;;;;;5112168;28;20485;-78
2021/07/28 02:18:35;;;;;;;11.97;10.87;;;17.80;99.90;;;;;;5111659;28;20484;-77
2021/07/28 02:21:04;;;;;;;14.53;11.37;;;17.80;99.90;;;;;;5112425;28;20441;-78
2021/07/28 02:23:31;;;;;;;15.50;12.70;;;17.70;99.90;;;;;;5112650;28;20453;-78
2021/07/28 02:25:58;;;;;;;12.63;11.53;;;17.70;99.90;;;;;;5112855;28;20441;-77
2021/07/28 02:28:25;;;;;;;12.40;11.30;;;17.70;99.90;;;;;;5112715;28;20472;-78
2021/07/28 02:30:52;;;;;;;14.50;11.80;;;17.70;99.90;;;;;;5112551;28;20438;-78
2021/07/28 02:33:20;;;;;;;12.67;11.67;;;17.70;99.90;;;;;;5112430;28;20438;-77
2021/07/28 02:35:46;;;;;;;12.07;10.57;;;17.80;99.90;;;;;;5112369;28;20477;-78
2021/07/28 02:38:13;;;;;;;12.50;11.30;;;17.80;99.90;;;;;;5112288;28;20481;-78
2021/07/28 02:40:40;;;;;;;13.20;11.93;;;17.80;99.90;;;;;;5112534;28;20442;-78
2021/07/28 02:43:06;;;;;;;13.60;12.27;;;17.80;99.90;;;;;;5112294;28;20452;-78
2021/07/28 02:45:34;;;;;;;12.00;11.00;;;17.90;99.90;;;;;;5112437;28;20972;-77
2021/07/28 02:48:04;;;;;;;12.93;11.83;;;17.90;99.90;;;;;;5112285;28;20471;-78
2021/07/28 02:50:32;;;;;;;12.47;11.50;;;17.90;99.90;;;;;;5112258;28;20448;-77
2021/07/28 02:52:59;;;;;;;13.80;12.80;;;18.00;99.90;;;;;;5111940;28;20499;-77
2021/07/28 02:55:25;;;;;;;11.77;10.87;;;18.00;99.90;;;;;;5112012;28;20477;-78
2021/07/28 02:57:52;;;;;;;13.47;12.30;;;18.00;99.90;;;;;;5112048;28;20994;-78
2021/07/28 03:00:19;;;;;;;12.87;11.73;;;18.00;99.90;;;;;;5112064;28;20450;-78
2021/07/28 03:02:46;;;;;;;13.33;12.30;;;18.10;99.90;;;;;;5111850;28;20450;-78
2021/07/28 03:05:14;;;;;;;14.00;12.70;;;18.10;99.90;;;;;;5111843;28;20445;-79
2021/07/28 03:07:42;;;;;;;13.20;12.03;;;18.10;99.90;;;;;;5112327;28;20991;-77
2021/07/28 03:10:10;;;;;;;14.20;12.80;;;18.10;99.90;;;;;;5111796;28;20450;-77
2021/07/28 03:12:36;;;;;;;14.43;13.23;;;18.00;99.90;;;;;;5110998;28;20445;-78
2021/07/28 03:15:04;;;;;;;14.10;13.00;;;18.00;99.90;;;;;;5112095;28;20488;-77
2021/07/28 03:17:30;;;;;;;13.90;12.70;;;18.00;99.90;;;;;;5111838;28;20853;-75
2021/07/28 03:19:57;;;;;;;13.17;12.07;;;18.00;99.90;;;;;;5111548;28;20441;-74
2021/07/28 03:22:24;;;;;;;17.13;13.03;;;18.00;99.90;;;;;;5111638;28;20464;-75
2021/07/28 03:24:53;;;;;;;13.97;12.50;;;18.00;99.90;;;;;;5112248;28;20528;-75
2021/07/28 03:27:19;;;;;;;12.53;11.47;;;18.00;99.90;;;;;;5112201;28;20493;-75
2021/07/28 03:29:46;;;;;;;12.30;11.40;;;18.00;99.90;;;;;;5112261;28;20437;-77
2021/07/28 03:32:12;;;;;;;14.13;12.93;;;18.00;99.90;;;;;;5114765;28;20448;-77
2021/07/28 03:34:39;;;;;;;13.87;12.57;;;18.00;99.90;;;;;;5113706;28;20975;-78
2021/07/28 03:37:06;;;;;;;13.07;11.90;;;18.00;99.90;;;;;;5112627;28;20808;-77
2021/07/28 03:39:33;;;;;;;14.23;12.93;;;18.00;99.90;;;;;;5112863;28;20446;-77
2021/07/28 03:42:01;;;;;;;13.50;12.40;;;18.00;99.90;;;;;;5112811;28;20449;-76
2021/07/28 03:44:28;;;;;;;13.20;11.63;;;17.90;99.90;;;;;;5113252;28;20441;-77
2021/07/28 03:46:54;;;;;;;14.30;12.90;;;17.90;99.90;;;;;;5113838;28;20473;-78
2021/07/28 03:49:21;;;;;;;12.90;12.00;;;17.90;99.90;;;;;;5114905;28;20438;-77
2021/07/28 03:51:48;;;;;;;13.67;12.43;;;18.00;99.90;;;;;;5114188;28;20456;-77
2021/07/28 03:54:14;;;;;;;14.00;12.80;;;17.90;99.90;;;;;;5113284;28;20452;-76
2021/07/28 03:56:41;;;;;;;14.10;12.90;;;18.00;99.90;;;;;;5113235;28;20484;-78
2021/07/28 03:59:09;;;;;;;14.03;12.80;;;18.00;99.90;;;;;;5115137;28;20808;-76
2021/07/28 04:01:36;;;;;;;13.93;12.40;;;18.00;99.90;;;;;;5111396;28;20453;-77
2021/07/28 04:04:02;;;;;;;13.53;12.10;;;18.00;99.90;;;;;;5112291;28;20441;-77
2021/07/28 04:06:29;;;;;;;15.57;14.07;;;18.00;99.90;;;;;;5112641;28;20948;-77
2021/07/28 04:08:56;;;;;;;13.23;12.13;;;18.00;99.90;;;;;;5112616;28;20829;-77
2021/07/28 04:11:22;;;;;;;13.27;12.17;;;18.10;99.90;;;;;;5112910;28;20822;-77
2021/07/28 04:13:49;;;;;;;13.63;12.63;;;18.10;99.90;;;;;;5112944;28;20907;-78
2021/07/28 04:16:18;;;;;;;13.50;12.03;;;18.10;99.90;;;;;;5113178;28;20477;-78
2021/07/28 04:18:45;;;;;;;13.37;12.37;;;18.10;99.90;;;;;;5112594;28;20472;-78
2021/07/28 04:21:12;;;;;;;13.50;12.40;;;18.10;99.90;;;;;;5111394;28;20445;-77
2021/07/28 04:23:38;;;;;;;14.77;13.57;;;18.20;99.90;;;;;;5112439;28;20448;-77
2021/07/28 04:26:05;;;;;;;15.10;13.60;;;18.20;99.90;;;;;;5114295;28;20438;-77
2021/07/28 04:28:32;;;;;;;13.97;12.87;;;18.20;99.90;;;;;;5114653;28;20473;-78
2021/07/28 04:31:02;;;;;;;14.87;13.53;;;18.20;99.90;;;;;;5114761;28;20445;-76
2021/07/28 04:33:30;;;;;;;14.40;13.20;;;18.20;99.90;;;;;;5114755;28;20952;-77
2021/07/28 04:35:56;;;;;;;16.17;14.67;;;18.30;99.90;;;;;;5114619;28;21074;-78
2021/07/28 04:38:24;;;;;;;15.63;14.23;;;18.30;99.90;;;;;;5114128;28;20476;-77
2021/07/28 04:40:52;;;;;;;14.90;13.70;;;18.30;99.90;;;;;;5114748;28;20448;-76
2021/07/28 04:43:18;;;;;;;14.97;13.60;;;18.30;99.90;;;;;;5114475;28;20464;-77
2021/07/28 04:45:45;;;;;;;14.17;12.93;;;18.30;99.90;;;;;;5114509;28;20445;-78
2021/07/28 04:48:12;;;;;;;15.03;13.83;;;18.40;99.90;;;;;;5114588;28;20473;-77
2021/07/28 04:50:40;;;;;;;16.23;14.97;;;18.40;99.90;;;;;;5113893;28;20854;-77
2021/07/28 04:53:06;;;;;;;16.47;15.07;;;18.40;99.90;;;;;;5113821;28;20441;-77
2021/07/28 04:55:34;;;;;;;15.30;14.10;;;18.40;99.90;;;;;;5114329;28;20755;-77
2021/07/28 04:58:00;;;;;;;16.63;15.47;;;18.50;99.90;;;;;;5114200;28;20859;-77
2021/07/28 05:00:30;;;;;;;15.77;14.47;;;18.50;99.90;;;;;;5114343;28;20460;-77
2021/07/28 05:02:57;;;;;;;14.37;13.47;;;18.50;99.90;;;;;;5114179;28;20457;-77
2021/07/28 05:05:23;;;;;;;17.00;15.60;;;18.60;99.90;;;;;;5114080;28;20454;-77
2021/07/28 05:07:51;;;;;;;15.17;13.97;;;18.60;99.90;;;;;;5113831;28;20465;-76
2021/07/28 05:10:18;;;;;;;15.90;14.70;;;18.70;99.90;;;;;;5113714;28;20971;-77
2021/07/28 05:12:45;;;;;;;18.60;17.17;;;18.80;99.90;;;;;;5113814;28;20438;-77
2021/07/28 05:15:12;;;;;;;16.23;14.90;;;18.90;99.90;;;;;;5113967;28;20441;-78
2021/07/28 05:17:39;;;;;;;17.90;16.17;;;18.90;99.90;;;;;;5113793;28;20980;-78
2021/07/28 05:20:07;;;;;;;18.50;17.00;;;19.00;99.90;;;;;;5113343;28;20528;-76
2021/07/28 05:22:33;;;;;;;18.13;16.67;;;19.00;99.90;;;;;;5112188;28;21021;-77
2021/07/28 05:25:01;;;;;;;17.23;16.00;;;19.00;99.90;;;;;;5111633;28;20453;-77
2021/07/28 05:27:29;;;;;;;18.10;16.97;;;18.90;99.90;;;;;;5112599;28;20469;-76
2021/07/28 05:29:55;;;;;;;17.70;16.40;;;18.90;99.90;;;;;;5113850;28;20442;-77
2021/07/28 05:32:23;;;;;;;17.97;16.67;;;18.90;99.90;;;;;;5115862;28;20506;-77
2021/07/28 05:34:50;;;;;;;19.30;17.90;;;19.00;99.90;;;;;;5116231;28;20820;-77
2021/07/28 05:37:16;;;;;;;18.73;17.27;;;19.00;99.90;;;;;;5114114;28;21080;-77
2021/07/28 05:39:43;;;;;;;18.83;17.53;;;19.00;99.90;;;;;;5114361;28;20456;-76
2021/07/28 05:42:12;;;;;;;19.00;17.70;;;19.00;99.90;;;;;;5114473;28;20804;-77
2021/07/28 05:44:38;;;;;;;21.07;19.47;;;19.00;99.90;;;;;;5114495;28;20507;-78
2021/07/28 05:47:06;;;;;;;18.50;17.00;;;19.00;99.90;;;;;;5114786;28;20465;-77
2021/07/28 05:49:33;;;;;;;18.50;17.20;;;19.00;99.90;;;;;;5114941;28;20452;-78
2021/07/28 05:52:00;;;;;;;18.63;17.23;;;19.10;99.90;;;;;;5114750;28;20453;-77
2021/07/28 05:54:26;;;;;;;18.97;17.60;;;19.10;99.90;;;;;;5114519;28;20441;-77
2021/07/28 05:56:53;;;;;;;19.93;18.63;;;19.20;99.90;;;;;;5113248;28;20996;-77
2021/07/28 05:59:21;;;;;;;19.30;18.00;;;19.20;99.90;;;;;;5113439;28;20953;-77
2021/07/28 06:01:48;;;;;;;18.70;17.40;;;19.20;99.90;;;;;;5113583;28;20469;-76
2021/07/28 06:04:15;;;;;;;20.60;19.20;;;19.20;99.90;;;;;;5113764;28;20467;-77
2021/07/28 06:06:42;;;;;;;20.20;19.00;;;19.30;99.90;;;;;;5113842;28;20434;-78
2021/07/28 06:09:08;;;;;;;19.93;18.63;;;19.40;99.90;;;;;;5113684;28;20446;-76
2021/07/28 06:11:35;;;;;;;19.90;18.60;;;19.40;99.90;;;;;;5112412;28;20453;-77
2021/07/28 06:14:02;;;;;;;19.63;18.43;;;19.50;99.90;;;;;;5112817;28;20835;-77
2021/07/28 06:16:30;;;;;;;19.23;17.80;;;19.70;99.90;;;;;;5113104;28;20853;-77
2021/07/28 06:18:57;;;;;;;20.53;19.33;;;19.80;99.90;;;;;;5112971;28;20441;-77
2021/07/28 06:21:23;;;;;;;19.03;17.83;;;19.80;99.90;;;;;;5112501;28;20805;-77
2021/07/28 06:23:50;;;;;;;19.53;18.43;;;19.90;99.90;;;;;;5112579;28;20446;-76
2021/07/28 06:26:17;;;;;;;20.00;18.90;;;20.00;99.90;;;;;;5112769;28;20441;-77
2021/07/28 06:28:43;;;;;;;20.60;19.33;;;20.00;99.90;;;;;;5112337;28;20473;-77
2021/07/28 06:31:10;;;;;;;21.07;19.77;;;20.00;99.90;;;;;;5112570;28;20449;-77
2021/07/28 06:33:38;;;;;;;21.97;20.53;;;20.00;99.90;;;;;;5112651;28;20446;-77
2021/07/28 06:36:05;;;;;;;22.83;21.10;;;20.10;99.90;;;;;;5112653;28;20484;-76
2021/07/28 06:38:32;;;;;;;21.07;19.67;;;20.00;99.90;;;;;;5113250;28;20469;-77
2021/07/28 06:40:59;;;;;;;20.00;18.70;;;19.90;99.90;;;;;;5113072;28;20441;-76
2021/07/28 06:43:26;;;;;;;22.23;20.83;;;19.90;99.90;;;;;;5113282;28;20474;-76
2021/07/28 06:45:58;;;;;;;24.30;22.17;;;19.90;99.90;;;;;;5113507;28;20438;-76
2021/07/28 06:48:24;;;;;;;21.60;20.20;;;20.10;99.90;;;;;;5112743;28;20831;-76
2021/07/28 06:50:52;;;;;;;19.20;18.20;;;20.30;99.90;;;;;;5113395;28;20449;-75
2021/07/28 06:53:19;;;;;;;20.33;19.10;;;20.30;99.90;;;;;;5113311;28;20438;-76
2021/07/28 06:55:46;;;;;;;18.83;17.57;;;20.40;99.90;;;;;;5113569;28;20449;-77
2021/07/28 06:58:13;;;;;;;20.53;19.43;;;20.40;99.90;;;;;;5113583;28;20453;-77
2021/07/28 07:00:39;;;;;;;20.70;19.40;;;20.50;99.90;;;;;;5113939;28;20453;-76
2021/07/28 07:03:06;;;;;;;20.10;18.87;;;20.50;99.90;;;;;;5113426;28;20441;-77
2021/07/28 07:05:33;;;;;;;21.07;19.80;;;20.60;99.90;;;;;;5114056;28;20446;-77
2021/07/28 07:08:01;;;;;;;21.40;20.10;;;20.70;99.90;;;;;;5113818;28;20484;-77
2021/07/28 07:10:27;;;;;;;22.20;20.87;;;20.80;99.90;;;;;;5113319;28;20458;-76
2021/07/28 07:12:54;;;;;;;21.73;20.23;;;21.00;99.90;;;;;;5112644;28;20885;-77
2021/07/28 07:15:21;;;;;;;20.87;19.77;;;21.10;99.90;;;;;;5113734;28;20446;-76
2021/07/28 07:17:47;;;;;;;21.80;20.50;;;21.20;99.90;;;;;;5113844;28;20980;-77
2021/07/28 07:20:15;;;;;;;21.93;20.67;;;21.50;99.90;;;;;;5114280;28;20446;-77
2021/07/28 07:22:41;;;;;;;21.93;20.80;;;21.60;99.90;;;;;;5113738;28;20437;-77
2021/07/28 07:25:11;;;;;;;21.87;20.63;;;21.70;99.90;;;;;;5114193;28;20789;-76
2021/07/28 07:27:40;;;;;;;20.93;19.73;;;22.00;99.90;;;;;;5114267;28;20461;-77
2021/07/28 07:30:08;;;;;;;22.37;21.10;;;22.20;99.90;;;;;;5113686;28;20451;-76
2021/07/28 07:32:35;;;;;;;24.03;22.37;;;22.40;99.90;;;;;;5111825;28;20461;-76
2021/07/28 07:35:02;;;;;;;22.13;20.83;;;22.70;99.90;;;;;;5112635;28;20963;-76
2021/07/28 07:37:28;;;;;;;21.20;20.20;;;22.70;99.90;;;;;;5112886;28;20496;-77
2021/07/28 07:39:55;;;;;;;22.47;21.30;;;22.40;99.90;;;;;;5112770;28;21023;-76
2021/07/28 07:42:23;;;;;;;22.60;21.40;;;22.20;99.90;;;;;;5111437;28;20456;-76
2021/07/28 07:44:50;;;;;;;22.97;21.53;;;21.60;99.90;;;;;;5111689;28;20447;-76
2021/07/28 07:47:18;;;;;;;23.20;21.77;;;21.40;99.90;;;;;;5111526;28;20848;-76
2021/07/28 07:49:44;;;;;;;22.87;21.17;;;20.80;99.90;;;;;;5111593;28;20449;-76
2021/07/28 07:52:11;;;;;;;20.93;19.70;;;20.20;99.90;;;;;;5111394;28;20449;-76
2021/07/28 07:54:38;;;;;;;19.73;18.53;;;19.60;99.90;;;;;;5111682;28;20445;-75
2021/07/28 07:57:05;;;;;;;19.90;18.73;;;19.40;99.90;;;;;;5111305;28;20488;-76
2021/07/28 07:59:33;;;;;;;17.70;16.70;;;19.30;99.90;;;;;;5114043;28;20445;-76
2021/07/28 08:02:00;;;;;;;16.00;15.30;;;19.20;99.90;;;;;;5115292;28;20469;-75
2021/07/28 08:04:26;;;;;;;17.40;16.60;;;19.10;99.90;;;;;;5115607;28;20979;-76
2021/07/28 08:06:53;;;;;;;17.80;16.60;;;18.90;99.90;;;;;;5115255;28;20465;-76
2021/07/28 08:09:20;;;;;;;16.43;15.30;;;19.00;99.90;;;;;;5115581;28;20440;-76
2021/07/28 08:11:46;;;;;;;19.33;17.67;;;19.20;99.90;;;;;;5115362;28;20449;-77
2021/07/28 08:14:13;;;;;;;16.33;15.43;;;19.30;99.90;;;;;;5115479;28;20936;-76
2021/07/28 08:16:41;;;;;;;17.73;16.43;;;19.60;99.90;;;;;;5115146;28;20847;-76
2021/07/28 08:19:08;;;;;;;16.53;15.50;;;19.70;99.90;;;;;;5115407;28;20449;-76
2021/07/28 08:21:35;;;;;;;17.50;16.60;;;19.80;99.90;;;;;;5115108;28;20649;-75
2021/07/28 08:24:02;;;;;;;18.60;17.50;;;20.00;99.90;;;;;;5115172;28;20510;-76
2021/07/28 08:26:28;;;;;;;17.93;17.00;;;20.40;99.90;;;;;;5115432;28;20444;-76
2021/07/28 08:28:55;;;;;;;17.60;16.67;;;20.70;99.90;;;;;;5115228;28;20448;-76
2021/07/28 08:31:22;;;;;;;18.50;17.50;;;20.60;99.90;;;;;;5115526;28;20437;-77
2021/07/28 08:33:50;;;;;;;18.47;17.37;;;20.30;99.90;;;;;;5115521;28;20959;-76
2021/07/28 08:36:16;;;;;;;17.80;16.80;;;20.00;99.90;;;;;;5115238;28;20437;-77
2021/07/28 08:38:43;;;;;;;17.77;16.43;;;20.00;99.90;;;;;;5115506;28;20465;-77
2021/07/28 08:41:11;;;;;;;15.73;14.70;;;19.90;99.90;;;;;;5115535;28;20441;-77
2021/07/28 08:43:40;;;;;;;16.57;15.30;;;20.00;99.90;;;;;;5115430;28;20453;-76
2021/07/28 08:46:08;;;;;;;15.70;14.77;;;20.10;99.90;;;;;;5115379;28;20449;-77
2021/07/28 08:48:36;;;;;;;13.33;12.60;;;20.10;99.90;;;;;;5114866;28;20476;-76
2021/07/28 08:51:06;;;;;;;16.10;14.70;;;20.20;99.90;;;;;;5114613;28;20452;-77
2021/07/28 08:53:33;;;;;;;16.20;15.30;;;20.30;99.90;;;;;;5114739;28;20916;-77
2021/07/28 08:56:01;;;;;;;16.10;15.10;;;20.30;99.90;;;;;;5114599;28;20437;-77
2021/07/28 08:58:29;;;;;;;17.30;16.23;;;20.60;99.90;;;;;;5114328;28;20481;-76
2021/07/28 09:00:57;;;;;;;15.87;15.07;;;20.50;99.90;;;;;;5114430;28;20442;-77
2021/07/28 09:03:23;;;;;;;17.20;16.10;;;20.50;99.90;;;;;;5114300;28;20462;-76
2021/07/28 09:05:51;;;;;;;16.13;15.30;;;20.40;99.90;;;;;;5114567;28;20449;-76
2021/07/28 09:08:27;;;;;;;17.00;16.10;;;20.60;99.90;;;;;;5116247;28;20477;-77
2021/07/28 09:10:55;;;;;;;17.70;16.70;;;20.90;99.90;;;;;;5115174;28;20441;-76
2021/07/28 09:13:30;;;;;;;17.47;16.50;;;21.20;99.90;;;;;;5115639;28;20446;-77
2021/07/28 09:15:58;;;;;;;18.33;17.43;;;21.40;99.90;;;;;;5116376;28;20437;-77
2021/07/28 09:18:34;;;;;;;19.73;18.83;;;21.70;99.90;;;;;;5115838;28;20480;-77
2021/07/28 09:21:02;;;;;;;20.00;18.90;;;21.70;99.90;;;;;;5116336;28;20445;-76
2021/07/28 09:23:41;;;;;;;18.90;18.00;;;21.70;99.90;;;;;;5116112;28;20448;-77
2021/07/28 09:26:32;;;;;;;19.60;18.67;;;22.10;99.90;;;;;;5116430;28;20498;-77
2021/07/28 09:29:06;;;;;;;20.83;19.83;;;22.30;99.90;;;;;;5116131;28;20445;-77
2021/07/28 09:31:34;;;;;;;20.63;19.73;;;22.50;99.90;;;;;;5114591;28;20441;-77
2021/07/28 09:34:30;;;;;;;20.73;19.73;;;22.60;99.90;;;;;;5114275;28;20457;-76
2021/07/28 09:36:58;;;;;;;20.73;19.73;;;22.60;99.90;;;;;;5115191;28;20492;-77
2021/07/28 09:39:28;;;;;;;20.70;19.80;;;22.80;99.90;;;;;;5115682;28;20445;-77
2021/07/28 09:41:56;;;;;;;19.90;19.07;;;23.10;99.90;;;;;;5115561;28;20446;-77
2021/07/28 09:44:28;;;;;;;21.33;20.33;;;23.30;99.90;;;;;;5115844;28;20452;-77
2021/07/28 09:47:19;;;;;;;20.97;19.80;;;23.30;99.90;;;;;;5116777;28;20465;-77
2021/07/28 09:49:48;;;;;;;20.43;19.53;;;23.70;99.90;;;;;;5101812;27;20441;-77
2021/07/28 09:52:19;;;;;;;21.07;20.07;;;23.80;99.90;;;;;;5116190;28;20448;-78
2021/07/28 09:54:49;;;;;;;21.67;20.67;;;24.20;99.90;;;;;;5116764;28;20464;-78
2021/07/28 09:57:20;;;;;;;21.53;20.30;;;24.20;99.90;;;;;;5116301;28;21126;-78
2021/07/28 09:59:51;;;;;;;20.20;19.40;;;24.30;99.90;;;;;;5118957;28;20470;-77
2021/07/28 10:02:18;;;;;;;22.53;21.13;;;24.50;99.90;;;;;;5117287;28;20481;-76
2021/07/28 10:04:48;;;;;;;21.03;19.97;;;24.70;99.90;;;;;;5114430;28;20438;-76
2021/07/28 10:07:17;;;;;;;20.93;19.93;;;24.50;99.90;;;;;;5113202;28;20475;-77
2021/07/28 10:09:50;;;;;;;20.57;19.77;;;24.20;99.90;;;;;;5113557;28;20503;-77
2021/07/28 10:12:18;;;;;;;22.20;21.30;;;24.10;99.90;;;;;;5113075;28;20445;-76
2021/07/28 10:14:45;;;;;;;21.50;20.50;;;24.20;99.90;;;;;;5113253;28;20477;-76
2021/07/28 10:17:13;;;;;;;20.73;19.83;;;24.60;99.90;;;;;;5113353;28;20588;-77
2021/07/28 10:19:40;;;;;;;21.47;20.57;;;24.60;99.90;;;;;;5113341;28;20522;-76
2021/07/28 10:22:08;;;;;;;22.23;21.33;;;24.60;99.90;;;;;;5112759;28;20450;-76
2021/07/28 10:24:34;;;;;;;22.87;21.90;;;24.50;99.10;;;;;;5112931;28;20449;-75
2021/07/28 10:27:04;;;;;;;22.37;21.47;;;24.50;99.30;;;;;;5112772;28;21033;-76
2021/07/28 10:29:31;;;;;;;22.00;20.93;;;24.60;99.00;;;;;;5112803;28;20437;-77
2021/07/28 10:31:58;;;;;;;20.93;20.13;;;24.60;98.00;;;;;;5112552;28;20469;-76
2021/07/28 10:34:26;;;;;;;20.90;20.10;;;24.70;97.80;;;;;;5112810;28;20457;-76
2021/07/28 10:36:54;;;;;;;20.23;19.53;;;24.70;95.20;;;;;;5112500;28;20515;-76
2021/07/28 10:39:40;;;;;;;20.60;19.60;;;24.60;94.30;;;;;;5112325;28;20821;-76
2021/07/28 10:42:09;;;;;;;22.10;20.30;;;24.70;94.90;;;;;;5111824;28;20445;-77
2021/07/28 10:44:59;;;;;;;22.00;21.10;;;24.80;94.80;;;;;;5112621;28;20437;-77
2021/07/28 10:47:39;;;;;;;22.30;21.30;;;25.40;93.80;;;;;;5112293;28;20466;-76
2021/07/28 10:50:08;;;;;;;22.37;21.20;;;25.50;91.80;;;;;;5112443;28;20831;-75
2021/07/28 10:52:44;;;;;;;21.70;20.90;;;25.70;87.10;;;;;;5114004;28;20441;-78
2021/07/28 10:55:19;;;;;;;22.67;21.47;;;25.70;84.30;;;;;;5113148;28;20429;-77
2021/07/28 10:58:24;;;;;;;20.83;20.03;;;25.60;84.40;;;;;;5112086;28;20487;-77
2021/07/28 11:00:54;;;;;;;21.37;20.40;;;25.40;81.70;;;;;;5112408;28;20437;-77
2021/07/28 11:03:28;;;;;;;20.37;19.60;;;25.70;83.40;;;;;;5112075;28;20494;-76
2021/07/28 11:06:16;;;;;;;21.60;20.80;;;26.00;82.20;;;;;;5112313;28;20930;-77
2021/07/28 11:08:44;;;;;;;21.70;20.90;;;26.10;79.00;;;;;;5111937;28;20465;-76
2021/07/28 11:11:11;;;;;;;22.00;21.20;;;26.20;76.80;;;;;;5111732;28;20440;-76
2021/07/28 11:13:44;;;;;;;21.13;20.43;;;26.50;73.10;;;;;;5112022;28;20444;-76
2021/07/28 11:16:12;;;;;;;22.80;22.00;;;27.00;70.50;;;;;;5112115;28;20924;-75
2021/07/28 11:18:41;;;;;;;21.97;21.17;;;27.50;70.10;;;;;;5111864;28;20508;-76
2021/07/28 11:21:10;;;;;;;22.27;21.47;;;27.80;67.80;;;;;;5111866;28;20446;-76
2021/07/28 11:23:42;;;;;;;21.90;21.00;;;27.50;66.50;;;;;;5111865;28;20446;-76
2021/07/28 11:26:19;;;;;;;21.37;20.67;;;27.40;63.10;;;;;;5111884;28;20468;-76
2021/07/28 11:28:46;;;;;;;21.43;20.57;;;27.70;63.80;;;;;;5111859;28;20457;-77
2021/07/28 11:31:15;;;;;;;22.50;21.67;;;27.50;63.40;;;;;;5111657;28;20452;-76
2021/07/28 11:33:42;;;;;;;22.07;21.20;;;27.10;64.40;;;;;;5111079;28;20441;-76
2021/07/28 11:36:09;;;;;;;22.63;21.73;;;27.20;63.90;;;;;;5111946;28;20948;-77
2021/07/28 11:38:37;;;;;;;23.50;22.57;;;27.70;63.00;;;;;;5111605;28;21063;-75
2021/07/28 11:41:05;;;;;;;22.83;21.93;;;28.20;61.10;;;;;;5111294;28;20453;-74
2021/07/28 11:43:33;;;;;;;22.90;21.90;;;28.30;58.30;;;;;;5111577;28;20445;-76
2021/07/28 11:46:02;;;;;;;22.20;21.27;;;27.80;57.40;;;;;;5111670;28;20450;-75
2021/07/28 11:48:31;;;;;;;22.43;21.53;;;27.80;59.30;;;;;;5111614;28;20466;-76
2021/07/28 11:50:58;;;;;;;23.27;22.27;;;27.80;58.40;;;;;;5111488;28;20445;-77
2021/07/28 11:53:25;;;;;;;22.80;21.80;;;28.10;56.80;;;;;;5111519;28;20452;-77
2021/07/28 11:55:54;;;;;;;23.57;22.47;;;28.60;56.20;;;;;;5111470;28;20448;-74
2021/07/28 11:58:20;;;;;;;24.63;23.47;;;29.70;54.80;;;;;;5111310;28;20476;-74
2021/07/28 12:00:49;;;;;;;22.50;21.60;;;30.60;52.50;;;;;;5111281;28;20440;-73
2021/07/28 12:03:26;;;;;;;22.10;21.30;;;30.50;52.30;;;;;;5111350;28;20453;-74
2021/07/28 12:06:02;;;;;;;23.07;22.17;;;30.40;51.90;;;;;;5111408;28;20476;-74
2021/07/28 12:08:33;;;;;;;21.50;20.70;;;29.80;52.00;;;;;;5111240;28;20471;-75
2021/07/28 12:11:06;;;;;;;22.07;21.17;;;30.50;53.00;;;;;;5111006;28;20444;-74
2021/07/28 12:13:43;;;;;;;22.93;21.73;;;31.00;51.00;;;;;;5110933;28;20438;-74
2021/07/28 12:16:10;;;;;;;24.00;22.90;;;34.00;48.10;;;;;;5111275;28;20452;-75
2021/07/28 12:18:44;;;;;;;22.60;21.60;;;32.80;46.50;;;;;;5111187;28;20484;-74
2021/07/28 12:21:13;;;;;;;23.23;22.43;;;32.30;47.90;;;;;;5110697;28;20468;-74
2021/07/28 12:23:50;;;;;;;23.42;22.42;;;35.60;43.30;;;;;;5111218;28;20451;-74
2021/07/28 12:26:17;;;;;;;23.88;22.65;;;38.70;39.70;;;;;;5110930;28;20237;-75
2021/07/28 12:28:51;;;;;;;23.08;22.23;;;37.10;37.90;;;;;;5110811;28;20207;-75
2021/07/28 12:31:28;;;;;;;22.90;22.02;;;36.10;38.80;;;;;;5111029;28;20209;-74
2021/07/28 12:33:55;;;;;;;22.70;21.90;;;36.40;38.60;;;;;;5111283;28;20588;-74
2021/07/28 12:36:29;;;;;;;23.25;22.35;;;38.20;37.00;;;;;;5111205;28;20590;-74